createdAt,value
2023-03-04T00:00:31.820Z,75.85
2023-03-04T00:02:58.927Z,75.25
2023-03-04T00:05:25.908Z,75.51
2023-03-04T00:07:55.777Z,76.90
2023-03-04T00:10:25.620Z,77.27
2023-03-04T00:12:52.710Z,76.38
2023-03-04T00:15:19.615Z,76.55
2023-03-04T00:17:46.883Z,77.46
2023-03-04T00:20:17.425Z,78.52
2023-03-04T00:22:44.423Z,78.66
2023-03-04T00:25:11.472Z,78.02
2023-03-04T00:27:40.803Z,80.01
2023-03-04T00:30:12.448Z,80.21
2023-03-04T00:32:41.864Z,79.08
2023-03-04T00:35:11.281Z,78.64
2023-03-04T00:37:43.874Z,78.46
2023-03-04T00:40:11.778Z,78.22
2023-03-04T00:42:38.742Z,77.59
2023-03-04T00:45:09.486Z,78.08
2023-03-04T00:47:38.704Z,78.04
2023-03-04T00:50:08.852Z,78.53
2023-03-04T00:52:38.145Z,79.86
2023-03-04T00:55:08.736Z,79.64
2023-03-04T00:57:35.907Z,79.10
2023-03-04T01:00:03.354Z,78.96
2023-03-04T01:02:30.324Z,78.56
2023-03-04T01:04:59.782Z,78.23
2023-03-04T01:07:26.678Z,79.39
2023-03-04T01:09:53.589Z,78.75
2023-03-04T01:12:20.454Z,79.02
2023-03-04T01:14:47.455Z,78.93
2023-03-04T01:17:17.333Z,78.24
2023-03-04T01:19:49.114Z,78.36
2023-03-04T01:22:19.187Z,78.51
2023-03-04T01:24:49.086Z,78.84
2023-03-04T01:27:15.988Z,77.67
2023-03-04T01:29:47.538Z,77.78
2023-03-04T01:32:14.699Z,77.67
2023-03-04T01:34:41.666Z,78.91
2023-03-04T01:37:09.389Z,77.88
2023-03-04T01:39:36.243Z,78.90
2023-03-04T01:42:03.172Z,79.26
2023-03-04T01:44:30.155Z,78.56
2023-03-04T01:46:57.344Z,78.18
2023-03-04T01:49:28.815Z,77.27
2023-03-04T01:51:55.833Z,77.10
2023-03-04T01:54:23.390Z,77.71
2023-03-04T01:56:54.631Z,77.16
2023-03-04T01:59:27.016Z,77.68
2023-03-04T02:01:59.836Z,78.32
2023-03-04T02:04:34.321Z,78.43
2023-03-04T02:07:03.194Z,78.53
2023-03-04T02:09:31.741Z,77.66
2023-03-04T02:12:01.978Z,77.36
2023-03-04T02:14:31.536Z,77.53
2023-03-04T02:16:58.891Z,77.34
2023-03-04T02:19:50.632Z,77.77
2023-03-04T02:22:17.765Z,77.48
2023-03-04T02:24:55.660Z,76.99
2023-03-04T02:27:22.871Z,77.25
2023-03-04T02:29:49.953Z,76.67
2023-03-04T02:32:17.241Z,78.43
2023-03-04T02:34:52.229Z,77.76
2023-03-04T02:37:20.258Z,78.02
2023-03-04T02:39:48.897Z,77.15
2023-03-04T02:42:18.407Z,76.27
2023-03-04T02:44:49.093Z,76.76
2023-03-04T02:47:18.776Z,78.03
2023-03-04T02:49:46.618Z,77.99
2023-03-04T02:52:19.414Z,76.42
2023-03-04T02:54:48.997Z,75.45
2023-03-04T02:57:19.220Z,75.34
2023-03-04T02:59:48.671Z,76.21
2023-03-04T03:02:18.095Z,76.88
2023-03-04T03:04:45.169Z,75.98
2023-03-04T03:07:17.174Z,76.46
2023-03-04T03:09:44.099Z,77.39
2023-03-04T03:12:11.018Z,77.58
2023-03-04T03:14:37.867Z,77.41
2023-03-04T03:17:04.885Z,76.51
2023-03-04T03:19:31.961Z,77.52
2023-03-04T03:22:01.089Z,77.03
2023-03-04T03:24:30.476Z,76.16
2023-03-04T03:26:57.374Z,76.43
2023-03-04T03:29:24.367Z,77.30
2023-03-04T03:31:51.444Z,78.17
2023-03-04T03:34:22.846Z,76.89
2023-03-04T03:36:52.380Z,76.68
2023-03-04T03:39:20.050Z,77.16
2023-03-04T03:41:47.002Z,77.28
2023-03-04T03:44:16.130Z,76.53
2023-03-04T03:46:43.070Z,76.90
2023-03-04T03:49:09.983Z,76.96
2023-03-04T03:51:36.868Z,77.52
2023-03-04T03:54:06.575Z,77.71
2023-03-04T03:56:35.924Z,77.93
2023-03-04T03:59:02.860Z,78.51
2023-03-04T04:01:29.843Z,79.64
2023-03-04T04:03:56.922Z,78.31
2023-03-04T04:06:23.786Z,78.59
2023-03-04T04:08:50.734Z,79.75
2023-03-04T04:11:20.152Z,81.60
2023-03-04T04:13:49.266Z,82.47
2023-03-04T04:16:16.343Z,83.00
2023-03-04T04:18:46.206Z,84.35
2023-03-04T04:21:13.972Z,84.45
2023-03-04T04:23:45.714Z,85.04
2023-03-04T04:26:12.641Z,85.31
2023-03-04T04:28:39.574Z,85.27
2023-03-04T04:31:12.224Z,85.46
2023-03-04T04:33:43.988Z,86.72
2023-03-04T04:36:17.036Z,86.88
2023-03-04T04:38:44.493Z,85.99
2023-03-04T04:41:23.040Z,86.64
2023-03-04T04:43:54.634Z,87.70
2023-03-04T04:46:25.995Z,86.77
2023-03-04T04:48:55.268Z,85.21
2023-03-04T04:51:22.281Z,85.29
2023-03-04T04:53:54.807Z,86.33
2023-03-04T04:56:26.320Z,85.23
2023-03-04T04:58:57.386Z,84.23
2023-03-04T05:01:27.956Z,83.81
2023-03-04T05:03:55.619Z,83.70
2023-03-04T05:06:24.522Z,84.13
2023-03-04T05:08:52.308Z,83.94
2023-03-04T05:11:20.272Z,83.58
2023-03-04T05:13:50.151Z,83.33
2023-03-04T05:16:22.541Z,83.88
2023-03-04T05:18:49.511Z,82.86
2023-03-04T05:21:16.473Z,83.05
2023-03-04T05:23:44.264Z,83.40
2023-03-04T05:26:18.674Z,83.70
2023-03-04T05:28:45.980Z,84.48
2023-03-04T05:31:15.437Z,84.94
2023-03-04T05:33:44.858Z,86.39
2023-03-04T05:36:11.898Z,86.61
2023-03-04T05:38:41.084Z,86.82
2023-03-04T05:41:10.462Z,87.11
2023-03-04T05:43:38.479Z,87.93
2023-03-04T05:46:05.698Z,87.41
2023-03-04T05:48:35.607Z,87.75
2023-03-04T05:51:06.025Z,89.03
2023-03-04T05:53:40.148Z,89.25
2023-03-04T05:56:10.041Z,89.72
2023-03-04T05:58:37.216Z,89.91
2023-03-04T06:01:04.950Z,90.95
2023-03-04T06:03:34.581Z,91.42
2023-03-04T06:06:04.042Z,92.30
2023-03-04T06:08:33.240Z,91.72
2023-03-04T06:11:00.513Z,90.97
2023-03-04T06:13:29.731Z,91.13
2023-03-04T06:16:00.794Z,89.97
2023-03-04T06:18:29.582Z,89.94
2023-03-04T06:21:02.040Z,88.31
2023-03-04T06:23:30.176Z,90.64
2023-03-04T06:25:59.781Z,88.86
2023-03-04T06:28:27.237Z,89.44
2023-03-04T06:30:58.163Z,88.67
2023-03-04T06:33:25.690Z,87.73
2023-03-04T06:35:57.640Z,85.28
2023-03-04T06:38:26.146Z,84.11
2023-03-04T06:40:54.307Z,82.66
2023-03-04T06:43:23.119Z,83.58
2023-03-04T06:45:50.038Z,83.02
2023-03-04T06:48:19.177Z,82.81
2023-03-04T06:50:48.542Z,80.67
2023-03-04T06:53:18.451Z,78.82
2023-03-04T06:55:45.318Z,77.62
2023-03-04T06:58:17.532Z,76.98
2023-03-04T07:00:47.032Z,73.87
2023-03-04T07:03:16.486Z,73.45
2023-03-04T07:05:43.851Z,72.51
2023-03-04T07:08:13.321Z,72.48
2023-03-04T07:10:40.178Z,71.88
2023-03-04T07:13:07.198Z,70.78
2023-03-04T07:15:38.760Z,70.91
2023-03-04T07:18:05.698Z,71.05
2023-03-04T07:20:32.915Z,70.26
2023-03-04T07:23:02.200Z,69.51
2023-03-04T07:25:32.543Z,69.67
2023-03-04T07:27:59.499Z,68.00
2023-03-04T07:30:26.479Z,68.18
2023-03-04T07:32:54.121Z,68.36
2023-03-04T07:35:24.100Z,68.75
2023-03-04T07:37:54.038Z,67.70
2023-03-04T07:40:23.568Z,68.05
2023-03-04T07:42:55.393Z,67.95
2023-03-04T07:45:24.297Z,67.62
2023-03-04T07:47:54.254Z,67.67
2023-03-04T07:50:22.419Z,67.73
2023-03-04T07:52:51.996Z,67.45
2023-03-04T07:55:21.116Z,66.75
2023-03-04T07:57:50.786Z,65.99
2023-03-04T08:00:22.065Z,65.95
2023-03-04T08:02:49.112Z,66.30
2023-03-04T08:05:16.162Z,66.98
2023-03-04T08:07:43.253Z,66.37
2023-03-04T08:10:11.311Z,66.36
2023-03-04T08:12:38.219Z,66.27
2023-03-04T08:15:08.722Z,66.05
2023-03-04T08:17:35.936Z,66.66
2023-03-04T08:20:02.989Z,65.31
2023-03-04T08:22:32.918Z,65.27
2023-03-04T08:24:59.919Z,65.54
2023-03-04T08:27:26.741Z,65.06
2023-03-04T08:29:55.872Z,65.24
2023-03-04T08:32:23.037Z,64.78
2023-03-04T08:34:49.957Z,64.83
2023-03-04T08:37:16.900Z,63.99
2023-03-04T08:39:46.150Z,64.93
2023-03-04T08:42:17.943Z,64.38
2023-03-04T08:44:45.545Z,64.92
2023-03-04T08:47:17.332Z,65.57
2023-03-04T08:49:44.548Z,65.92
2023-03-04T08:52:16.147Z,64.55
2023-03-04T08:54:46.022Z,64.15
2023-03-04T08:57:13.024Z,63.54
2023-03-04T08:59:39.892Z,64.10
2023-03-04T09:02:10.526Z,63.39
2023-03-04T09:04:37.631Z,63.62
2023-03-04T09:07:07.482Z,63.97
2023-03-04T09:09:34.433Z,64.13
2023-03-04T09:12:01.949Z,64.88
2023-03-04T09:14:28.989Z,65.77
2023-03-04T09:16:58.921Z,65.09
2023-03-04T09:19:30.482Z,64.35
2023-03-04T09:21:59.963Z,64.44
2023-03-04T09:24:27.265Z,63.43
2023-03-04T09:26:56.628Z,64.08
2023-03-04T09:29:23.608Z,64.37
2023-03-04T09:31:52.760Z,62.62
2023-03-04T09:34:19.746Z,62.98
2023-03-04T09:36:47.767Z,63.52
2023-03-04T09:39:14.751Z,63.79
2023-03-04T09:41:49.094Z,64.07
2023-03-04T09:44:36.781Z,63.15
2023-03-04T09:47:13.797Z,61.45
2023-03-04T09:49:45.595Z,61.13
2023-03-04T09:52:21.219Z,61.54
2023-03-04T09:55:04.982Z,61.06
2023-03-04T09:58:06.981Z,61.43
2023-03-04T10:01:01.586Z,62.84
2023-03-04T10:04:00.021Z,63.04
2023-03-04T10:06:28.789Z,62.42
2023-03-04T10:09:15.941Z,61.82
2023-03-04T10:12:23.552Z,61.56
2023-03-04T10:15:07.679Z,60.59
2023-03-04T10:17:48.339Z,61.08
2023-03-04T10:20:34.499Z,60.08
2023-03-04T10:23:17.378Z,60.65
2023-03-04T10:25:51.682Z,59.72
2023-03-04T10:28:26.980Z,59.31
2023-03-04T10:31:05.196Z,58.46
2023-03-04T10:33:35.797Z,59.25
2023-03-04T10:36:30.985Z,59.16
2023-03-04T10:39:02.621Z,59.57
2023-03-04T10:41:30.986Z,59.38
2023-03-04T10:44:10.038Z,58.95
2023-03-04T10:46:44.159Z,58.98
2023-03-04T10:49:15.038Z,59.28
2023-03-04T10:51:48.345Z,58.33
2023-03-04T10:54:49.909Z,59.39
2023-03-04T10:57:27.240Z,58.15
2023-03-04T10:59:59.209Z,58.01
2023-03-04T11:02:31.529Z,58.60
2023-03-04T11:05:15.610Z,58.07
2023-03-04T11:07:55.729Z,58.94
2023-03-04T11:10:40.102Z,58.83
2023-03-04T11:13:22.706Z,58.92
2023-03-04T11:16:01.104Z,58.65
2023-03-04T11:18:50.743Z,58.09
2023-03-04T11:21:27.779Z,57.07
2023-03-04T11:24:02.801Z,56.07
2023-03-04T11:26:55.875Z,55.71
2023-03-04T11:29:46.516Z,56.36
2023-03-04T11:32:22.891Z,56.50
2023-03-04T11:35:12.856Z,56.42
2023-03-04T11:37:47.819Z,56.71
2023-03-04T11:40:45.113Z,56.96
2023-03-04T11:43:22.463Z,58.51
2023-03-04T11:46:11.595Z,59.05
2023-03-04T11:49:15.625Z,58.91
2023-03-04T11:52:10.366Z,58.09
2023-03-04T11:55:14.006Z,57.23
2023-03-04T11:57:46.602Z,56.61
2023-03-04T12:00:37.836Z,55.07
2023-03-04T12:03:29.340Z,54.26
2023-03-04T12:06:35.344Z,52.63
2023-03-04T12:09:30.027Z,52.25
2023-03-04T12:12:24.403Z,52.19
2023-03-04T12:15:32.730Z,52.65
2023-03-04T12:18:12.943Z,53.00
2023-03-04T12:21:05.220Z,53.03
2023-03-04T12:23:45.807Z,52.90
2023-03-04T12:26:37.019Z,51.87
2023-03-04T12:29:29.448Z,52.09
2023-03-04T12:32:11.284Z,51.87
2023-03-04T12:34:56.308Z,51.68
2023-03-04T12:37:41.918Z,51.52
2023-03-04T12:40:42.212Z,51.25
2023-03-04T12:43:32.253Z,51.80
2023-03-04T12:46:22.645Z,51.72
2023-03-04T12:49:22.935Z,52.40
2023-03-04T12:51:58.536Z,52.57
2023-03-04T12:54:47.809Z,53.91
2023-03-04T12:57:23.467Z,53.09
2023-03-04T12:59:52.399Z,53.87
2023-03-04T13:03:14.305Z,54.70
2023-03-04T13:06:10.557Z,54.67
2023-03-04T13:08:58.621Z,52.66
2023-03-04T13:11:29.067Z,49.03
2023-03-04T13:14:17.316Z,50.26
2023-03-04T13:16:46.880Z,50.62
2023-03-04T13:19:48.283Z,52.55
2023-03-04T13:22:34.994Z,52.06
2023-03-04T13:25:37.509Z,52.39
2023-03-04T13:28:25.614Z,52.46
2023-03-04T13:30:56.016Z,53.19
2023-03-04T13:33:22.932Z,53.09
2023-03-04T13:35:54.669Z,52.63
2023-03-04T13:38:26.727Z,52.52
2023-03-04T13:41:27.534Z,52.82
2023-03-04T13:44:03.667Z,53.34
2023-03-04T13:46:50.913Z,53.14
2023-03-04T13:49:24.568Z,53.07
2023-03-04T13:51:52.864Z,53.21
2023-03-04T13:54:19.726Z,53.98
2023-03-04T13:57:21.230Z,54.19
2023-03-04T13:59:58.384Z,54.57
2023-03-04T14:02:28.715Z,54.54
2023-03-04T14:05:00.223Z,54.60
2023-03-04T14:07:35.206Z,54.27
2023-03-04T14:10:07.832Z,54.17
2023-03-04T14:12:58.132Z,51.04
2023-03-04T14:15:28.812Z,46.22
2023-03-04T14:18:01.501Z,44.89
2023-03-04T14:20:41.882Z,44.79
2023-03-04T14:23:31.122Z,47.28
2023-03-04T14:26:18.004Z,47.68
2023-03-04T14:28:52.267Z,47.98
2023-03-04T14:31:22.936Z,48.70
2023-03-04T14:33:59.635Z,48.52
2023-03-04T14:36:28.095Z,48.99
2023-03-04T14:39:01.910Z,49.38
2023-03-04T14:41:40.113Z,49.14
2023-03-04T14:44:09.960Z,49.87
2023-03-04T14:47:09.985Z,49.09
2023-03-04T14:49:40.296Z,49.81
2023-03-04T14:52:26.158Z,49.57
2023-03-04T14:55:26.955Z,49.20
2023-03-04T14:58:09.369Z,49.47
2023-03-04T15:00:41.460Z,48.74
2023-03-04T15:03:28.585Z,49.02
2023-03-04T15:05:58.432Z,48.99
2023-03-04T15:08:29.600Z,48.56
2023-03-04T15:11:02.109Z,49.13
2023-03-04T15:13:50.383Z,49.27
2023-03-04T15:16:23.595Z,50.00
2023-03-04T15:18:58.090Z,49.66
2023-03-04T15:21:33.046Z,50.07
2023-03-04T15:24:01.278Z,50.26
2023-03-04T15:26:31.825Z,49.77
2023-03-04T15:29:00.868Z,49.74
2023-03-04T15:31:29.254Z,50.86
2023-03-04T15:33:58.228Z,51.78
2023-03-04T15:36:27.662Z,51.86
2023-03-04T15:38:57.102Z,52.09
2023-03-04T15:41:26.624Z,51.28
2023-03-04T15:43:54.699Z,52.30
2023-03-04T15:46:22.300Z,52.68
2023-03-04T15:48:49.740Z,52.43
2023-03-04T15:51:22.536Z,52.32
2023-03-04T15:53:55.824Z,52.28
2023-03-04T15:56:29.976Z,52.73
2023-03-04T15:59:09.411Z,53.08
2023-03-04T16:01:38.632Z,53.71
2023-03-04T16:04:05.962Z,53.49
2023-03-04T16:06:33.592Z,54.38
2023-03-04T16:09:01.215Z,54.56
2023-03-04T16:11:33.642Z,54.54
2023-03-04T16:14:00.823Z,53.99
2023-03-04T16:16:27.737Z,53.84
2023-03-04T16:18:54.610Z,53.56
2023-03-04T16:21:25.310Z,53.98
2023-03-04T16:23:54.566Z,52.98
2023-03-04T16:26:25.082Z,53.06
2023-03-04T16:28:53.448Z,54.29
2023-03-04T16:31:21.932Z,53.95
2023-03-04T16:33:49.091Z,53.42
2023-03-04T16:36:29.356Z,53.11
2023-03-04T16:39:02.667Z,53.18
2023-03-04T16:41:35.738Z,53.30
2023-03-04T16:44:05.966Z,53.62
2023-03-04T16:46:35.138Z,53.49
2023-03-04T16:49:02.035Z,54.60
2023-03-04T16:51:30.522Z,53.88
2023-03-04T16:54:01.192Z,53.01
2023-03-04T16:56:28.458Z,54.17
2023-03-04T16:58:57.946Z,53.79
2023-03-04T17:01:31.725Z,53.92
2023-03-04T17:04:01.043Z,53.64
2023-03-04T17:06:28.295Z,54.73
2023-03-04T17:08:55.168Z,54.50
2023-03-04T17:11:23.927Z,55.01
2023-03-04T17:13:51.889Z,54.30
2023-03-04T17:16:19.261Z,55.28
2023-03-04T17:18:46.369Z,54.56
2023-03-04T17:21:20.374Z,53.99
2023-03-04T17:23:47.714Z,54.77
2023-03-04T17:26:15.569Z,55.29
2023-03-04T17:28:43.196Z,54.87
2023-03-04T17:31:13.480Z,55.31
2023-03-04T17:33:40.576Z,54.69
2023-03-04T17:36:13.025Z,54.81
2023-03-04T17:38:40.270Z,55.18
2023-03-04T17:41:15.742Z,55.86
2023-03-04T17:43:51.832Z,57.67
2023-03-04T17:46:23.755Z,58.57
2023-03-04T17:48:56.102Z,59.09
2023-03-04T17:51:36.279Z,58.41
2023-03-04T17:54:06.002Z,58.72
2023-03-04T17:56:37.889Z,58.82
2023-03-04T17:59:09.368Z,57.98
2023-03-04T18:01:38.992Z,58.76
2023-03-04T18:04:11.171Z,58.70
2023-03-04T18:06:38.674Z,58.70
2023-03-04T18:09:09.280Z,58.27
2023-03-04T18:11:39.443Z,59.05
2023-03-04T18:14:07.519Z,59.15
2023-03-04T18:16:34.932Z,59.28
2023-03-04T18:19:05.799Z,59.85
2023-03-04T18:21:33.165Z,59.54
2023-03-04T18:24:00.219Z,58.70
2023-03-04T18:26:28.229Z,58.85
2023-03-04T18:28:56.828Z,58.56
2023-03-04T18:31:31.505Z,58.17
2023-03-04T18:34:04.070Z,58.63
2023-03-04T18:36:33.721Z,59.13
2023-03-04T18:39:05.231Z,58.55
2023-03-04T18:41:32.202Z,58.51
2023-03-04T18:43:59.441Z,58.13
2023-03-04T18:46:50.685Z,58.46
2023-03-04T18:49:20.213Z,58.06
2023-03-04T18:51:50.208Z,57.67
2023-03-04T18:54:19.368Z,58.34
2023-03-04T18:56:57.527Z,58.64
2023-03-04T18:59:37.173Z,57.72
2023-03-04T19:02:13.748Z,58.02
2023-03-04T19:04:43.297Z,57.86
2023-03-04T19:07:12.645Z,58.06
2023-03-04T19:09:39.626Z,57.13
2023-03-04T19:12:06.689Z,57.50
2023-03-04T19:14:33.887Z,57.01
2023-03-04T19:17:00.977Z,57.86
2023-03-04T19:19:27.918Z,56.93
2023-03-04T19:21:57.175Z,57.76
2023-03-04T19:24:26.693Z,57.25
2023-03-04T19:26:55.863Z,57.66
2023-03-04T19:29:22.738Z,56.73
2023-03-04T19:31:49.956Z,56.83
2023-03-04T19:34:16.958Z,56.12
2023-03-04T19:36:44.191Z,56.23
2023-03-04T19:39:19.846Z,56.16
2023-03-04T19:41:49.218Z,56.93
2023-03-04T19:44:17.455Z,56.27
2023-03-04T19:46:44.448Z,56.41
2023-03-04T19:49:11.614Z,56.64
2023-03-04T19:51:38.526Z,56.51
2023-03-04T19:54:05.667Z,57.03
2023-03-04T19:56:32.584Z,57.03
2023-03-04T19:58:59.709Z,57.06
2023-03-04T20:01:29.173Z,57.00
2023-03-04T20:04:02.175Z,57.24
2023-03-04T20:06:31.893Z,57.10
2023-03-04T20:09:01.015Z,57.07
2023-03-04T20:11:32.116Z,57.30
2023-03-04T20:14:04.759Z,56.80
2023-03-04T20:16:36.463Z,56.51
2023-03-04T20:19:03.746Z,57.25
2023-03-04T20:21:37.675Z,56.92
2023-03-04T20:24:23.655Z,56.61
2023-03-04T20:26:51.992Z,56.14
2023-03-04T20:29:19.397Z,55.98
2023-03-04T20:31:49.902Z,58.48
2023-03-04T20:34:17.292Z,56.04
2023-03-04T20:36:47.080Z,55.32
2023-03-04T20:39:30.287Z,54.30
2023-03-04T20:42:03.980Z,55.08
2023-03-04T20:44:31.754Z,54.60
2023-03-04T20:46:59.147Z,54.64
2023-03-04T20:49:29.367Z,54.24
2023-03-04T20:52:06.426Z,54.23
2023-03-04T20:54:38.624Z,54.03
2023-03-04T20:57:11.712Z,54.49
2023-03-04T20:59:40.082Z,54.64
2023-03-04T21:02:33.002Z,54.30
2023-03-04T21:05:01.426Z,54.36
2023-03-04T21:07:28.779Z,54.93
2023-03-04T21:09:55.764Z,54.43
2023-03-04T21:12:27.252Z,54.36
2023-03-04T21:14:57.231Z,54.78
2023-03-04T21:17:26.378Z,55.23
2023-03-04T21:19:55.485Z,56.07
2023-03-04T21:22:22.327Z,55.61
2023-03-04T21:24:49.488Z,55.19
2023-03-04T21:27:17.109Z,55.30
2023-03-04T21:29:44.490Z,55.29
2023-03-04T21:32:24.398Z,55.18
2023-03-04T21:34:53.620Z,55.22
2023-03-04T21:37:24.797Z,54.69
2023-03-04T21:39:55.533Z,53.91
2023-03-04T21:42:22.758Z,54.92
2023-03-04T21:44:51.396Z,54.54
2023-03-04T21:47:21.000Z,54.14
2023-03-04T21:49:48.693Z,53.54
2023-03-04T21:52:16.139Z,53.66
2023-03-04T21:54:46.189Z,53.30
2023-03-04T21:57:14.398Z,53.85
2023-03-04T21:59:44.254Z,53.33
2023-03-04T22:02:17.618Z,52.82
2023-03-04T22:04:44.890Z,52.89
2023-03-04T22:07:13.062Z,53.51
2023-03-04T22:09:40.339Z,54.03
2023-03-04T22:12:07.714Z,53.26
2023-03-04T22:14:44.250Z,53.41
2023-03-04T22:17:11.535Z,52.79
2023-03-04T22:19:38.615Z,52.71
2023-03-04T22:22:08.687Z,52.86
2023-03-04T22:24:38.499Z,52.55
2023-03-04T22:27:07.826Z,52.47
2023-03-04T22:29:34.687Z,53.97
2023-03-04T22:32:06.280Z,53.74
2023-03-04T22:34:33.227Z,53.95
2023-03-04T22:37:00.227Z,53.26
2023-03-04T22:39:27.219Z,53.72
2023-03-04T22:41:54.132Z,54.28
2023-03-04T22:44:25.664Z,54.14
2023-03-04T22:46:56.305Z,55.41
2023-03-04T22:49:26.330Z,55.41
2023-03-04T22:51:53.387Z,55.31
2023-03-04T22:54:20.361Z,56.05
2023-03-04T22:56:50.035Z,56.25
2023-03-04T22:59:19.525Z,57.04
2023-03-04T23:01:46.530Z,57.53
2023-03-04T23:04:13.422Z,57.76
2023-03-04T23:06:40.646Z,58.89
2023-03-04T23:09:07.725Z,59.17
2023-03-04T23:11:35.764Z,60.94
2023-03-04T23:14:07.324Z,61.60
2023-03-04T23:16:39.484Z,62.00
2023-03-04T23:19:15.268Z,61.73
2023-03-04T23:21:42.901Z,62.75
2023-03-04T23:24:12.169Z,64.22
2023-03-04T23:26:40.985Z,64.37
2023-03-04T23:29:12.386Z,65.18
2023-03-04T23:31:39.370Z,64.85
2023-03-04T23:34:08.868Z,64.55
2023-03-04T23:36:42.482Z,65.52
2023-03-04T23:39:13.183Z,66.27
2023-03-04T23:41:40.332Z,66.41
2023-03-04T23:44:08.368Z,65.78
2023-03-04T23:46:38.616Z,65.98
2023-03-04T23:49:12.344Z,65.36
2023-03-04T23:51:40.848Z,65.79
2023-03-04T23:54:10.849Z,66.77
2023-03-04T23:56:40.310Z,66.66
2023-03-04T23:59:07.918Z,66.26
